sensor_id;sensor_type;location;lat;lon;timestamp;pressure;altitude;pressure_sealevel;temperature;humidity
57644;BME280;43474;46.510;6.686;2023-02-20T00:00:38;97624.59;;;5.57;100.00
57644;BME280;43474;46.510;6.686;2023-02-20T00:03:22;97634.44;;;5.63;100.00
57644;BME280;43474;46.510;6.686;2023-02-20T00:05:48;97624.16;;;5.53;100.00
57644;BME280;43474;46.510;6.686;2023-02-20T00:08:13;97640.31;;;5.42;100.00
57644;BME280;43474;46.510;6.686;2023-02-20T00:10:39;97633.94;;;5.36;100.00
57644;BME280;43474;46.510;6.686;2023-02-20T00:13:04;97629.06;;;5.33;100.00
57644;BME280;43474;46.510;6.686;2023-02-20T00:15:30;97631.72;;;5.25;100.00
57644;BME280;43474;46.510;6.686;2023-02-20T00:17:55;97618.75;;;5.24;100.00
57644;BME280;43474;46.510;6.686;2023-02-20T00:20:23;97624.81;;;5.24;100.00
57644;BME280;43474;46.510;6.686;2023-02-20T00:22:49;97612.31;;;4.95;100.00
57644;BME280;43474;46.510;6.686;2023-02-20T00:25:17;97641.13;;;5.11;100.00
57644;BME280;43474;46.510;6.686;2023-02-20T00:27:44;97635.59;;;5.06;100.00
57644;BME280;43474;46.510;6.686;2023-02-20T00:30:18;97643.13;;;5.09;100.00
57644;BME280;43474;46.510;6.686;2023-02-20T00:32:45;97615.13;;;4.93;100.00
57644;BME280;43474;46.510;6.686;2023-02-20T00:35:11;97630.72;;;4.95;100.00
57644;BME280;43474;46.510;6.686;2023-02-20T00:37:37;97632.81;;;5.08;100.00
57644;BME280;43474;46.510;6.686;2023-02-20T00:40:04;97616.81;;;5.17;100.00
57644;BME280;43474;46.510;6.686;2023-02-20T00:42:30;97624.19;;;5.22;100.00
57644;BME280;43474;46.510;6.686;2023-02-20T00:44:55;97628.81;;;5.12;100.00
57644;BME280;43474;46.510;6.686;2023-02-20T00:47:21;97646.69;;;5.16;100.00
57644;BME280;43474;46.510;6.686;2023-02-20T00:49:46;97637.53;;;5.12;100.00
57644;BME280;43474;46.510;6.686;2023-02-20T00:52:12;97639.56;;;5.02;100.00
57644;BME280;43474;46.510;6.686;2023-02-20T00:54:37;97634.16;;;4.96;100.00
57644;BME280;43474;46.510;6.686;2023-02-20T00:57:03;97641.72;;;4.90;100.00
57644;BME280;43474;46.510;6.686;2023-02-20T00:59:29;97632.75;;;4.77;100.00
57644;BME280;43474;46.510;6.686;2023-02-20T01:01:54;97636.47;;;4.99;100.00
57644;BME280;43474;46.510;6.686;2023-02-20T01:04:20;97655.34;;;5.02;100.00
57644;BME280;43474;46.510;6.686;2023-02-20T01:06:45;97650.44;;;4.91;100.00
57644;BME280;43474;46.510;6.686;2023-02-20T01:09:11;97651.59;;;4.88;100.00
57644;BME280;43474;46.510;6.686;2023-02-20T01:11:37;97631.63;;;4.71;100.00
57644;BME280;43474;46.510;6.686;2023-02-20T01:14:03;97641.34;;;4.62;100.00
57644;BME280;43474;46.510;6.686;2023-02-20T01:16:28;97644.28;;;4.68;100.00
57644;BME280;43474;46.510;6.686;2023-02-20T01:18:54;97629.19;;;4.61;100.00
57644;BME280;43474;46.510;6.686;2023-02-20T01:21:19;97649.91;;;4.48;100.00
57644;BME280;43474;46.510;6.686;2023-02-20T01:23:45;97646.13;;;4.51;100.00
57644;BME280;43474;46.510;6.686;2023-02-20T01:26:11;97659.59;;;4.48;100.00
57644;BME280;43474;46.510;6.686;2023-02-20T01:28:36;97651.91;;;4.38;100.00
57644;BME280;43474;46.510;6.686;2023-02-20T01:31:02;97667.78;;;4.45;100.00
57644;BME280;43474;46.510;6.686;2023-02-20T01:33:28;97660.78;;;4.21;100.00
57644;BME280;43474;46.510;6.686;2023-02-20T01:35:53;97666.34;;;4.18;100.00
57644;BME280;43474;46.510;6.686;2023-02-20T01:38:19;97654.03;;;4.26;100.00
57644;BME280;43474;46.510;6.686;2023-02-20T01:40:48;97660.75;;;4.12;100.00
57644;BME280;43474;46.510;6.686;2023-02-20T01:43:14;97680.63;;;4.23;100.00
57644;BME280;43474;46.510;6.686;2023-02-20T01:45:40;97686.03;;;4.13;100.00
57644;BME280;43474;46.510;6.686;2023-02-20T01:48:18;97681.94;;;4.11;100.00
57644;BME280;43474;46.510;6.686;2023-02-20T01:50:44;97692.06;;;3.98;100.00
57644;BME280;43474;46.510;6.686;2023-02-20T01:53:13;97671.28;;;3.80;100.00
57644;BME280;43474;46.510;6.686;2023-02-20T01:55:48;97681.09;;;3.86;100.00
57644;BME280;43474;46.510;6.686;2023-02-20T01:58:29;97665.50;;;3.60;100.00
57644;BME280;43474;46.510;6.686;2023-02-20T02:00:56;97661.72;;;3.62;100.00
57644;BME280;43474;46.510;6.686;2023-02-20T02:03:28;97659.63;;;3.66;100.00
57644;BME280;43474;46.510;6.686;2023-02-20T02:06:01;97657.16;;;3.65;100.00
57644;BME280;43474;46.510;6.686;2023-02-20T02:08:28;97656.34;;;3.64;100.00
57644;BME280;43474;46.510;6.686;2023-02-20T02:10:59;97656.81;;;3.51;100.00
57644;BME280;43474;46.510;6.686;2023-02-20T02:13:31;97659.44;;;3.43;100.00
57644;BME280;43474;46.510;6.686;2023-02-20T02:24:07;97648.50;;;3.05;100.00
57644;BME280;43474;46.510;6.686;2023-02-20T02:29:49;97663.72;;;3.02;100.00
57644;BME280;43474;46.510;6.686;2023-02-20T02:40:45;97656.28;;;3.23;100.00
57644;BME280;43474;46.510;6.686;2023-02-20T02:43:19;97646.13;;;3.28;100.00
57644;BME280;43474;46.510;6.686;2023-02-20T02:45:58;97640.25;;;3.43;100.00
57644;BME280;43474;46.510;6.686;2023-02-20T02:48:28;97644.34;;;3.37;100.00
57644;BME280;43474;46.510;6.686;2023-02-20T02:51:04;97646.84;;;3.63;100.00
57644;BME280;43474;46.510;6.686;2023-02-20T02:53:32;97641.75;;;3.78;100.00
57644;BME280;43474;46.510;6.686;2023-02-20T02:55:57;97655.06;;;3.84;100.00
57644;BME280;43474;46.510;6.686;2023-02-20T02:58:43;97648.00;;;4.01;100.00
57644;BME280;43474;46.510;6.686;2023-02-20T03:01:08;97657.69;;;4.09;100.00
57644;BME280;43474;46.510;6.686;2023-02-20T03:03:37;97652.91;;;4.04;100.00
57644;BME280;43474;46.510;6.686;2023-02-20T03:08:55;97652.41;;;4.01;100.00
57644;BME280;43474;46.510;6.686;2023-02-20T03:11:26;97639.31;;;3.93;100.00
57644;BME280;43474;46.510;6.686;2023-02-20T03:13:56;97645.06;;;4.04;100.00
57644;BME280;43474;46.510;6.686;2023-02-20T03:17:04;97644.53;;;3.93;100.00
57644;BME280;43474;46.510;6.686;2023-02-20T03:19:41;97630.97;;;3.89;100.00
57644;BME280;43474;46.510;6.686;2023-02-20T03:22:15;97642.75;;;3.77;100.00
57644;BME280;43474;46.510;6.686;2023-02-20T03:24:45;97642.44;;;3.63;100.00
57644;BME280;43474;46.510;6.686;2023-02-20T03:27:24;97636.00;;;3.58;100.00
57644;BME280;43474;46.510;6.686;2023-02-20T03:29:53;97631.91;;;3.47;100.00
57644;BME280;43474;46.510;6.686;2023-02-20T03:32:24;97631.91;;;3.47;100.00
57644;BME280;43474;46.510;6.686;2023-02-20T03:35:10;97628.78;;;3.35;100.00
57644;BME280;43474;46.510;6.686;2023-02-20T03:37:57;97600.56;;;3.13;100.00
57644;BME280;43474;46.510;6.686;2023-02-20T03:40:43;97613.09;;;2.93;100.00
57644;BME280;43474;46.510;6.686;2023-02-20T03:43:29;97620.28;;;2.83;100.00
57644;BME280;43474;46.510;6.686;2023-02-20T03:46:15;97605.88;;;2.79;100.00
57644;BME280;43474;46.510;6.686;2023-02-20T03:48:54;97607.47;;;2.64;100.00
57644;BME280;43474;46.510;6.686;2023-02-20T03:51:23;97589.88;;;2.48;100.00
57644;BME280;43474;46.510;6.686;2023-02-20T03:53:49;97593.28;;;2.40;100.00
57644;BME280;43474;46.510;6.686;2023-02-20T03:56:40;97607.00;;;2.34;100.00
57644;BME280;43474;46.510;6.686;2023-02-20T03:59:17;97597.84;;;2.38;100.00
57644;BME280;43474;46.510;6.686;2023-02-20T04:01:47;97585.03;;;2.27;100.00
57644;BME280;43474;46.510;6.686;2023-02-20T04:04:16;97600.06;;;2.25;100.00
57644;BME280;43474;46.510;6.686;2023-02-20T04:06:44;97592.63;;;2.12;100.00
57644;BME280;43474;46.510;6.686;2023-02-20T04:09:16;97599.63;;;2.38;100.00
57644;BME280;43474;46.510;6.686;2023-02-20T04:11:47;97576.47;;;2.17;100.00
57644;BME280;43474;46.510;6.686;2023-02-20T04:14:17;97586.88;;;2.08;100.00
57644;BME280;43474;46.510;6.686;2023-02-20T04:16:48;97597.66;;;2.05;100.00
57644;BME280;43474;46.510;6.686;2023-02-20T04:19:15;97588.84;;;2.06;100.00
57644;BME280;43474;46.510;6.686;2023-02-20T04:21:44;97597.09;;;2.20;100.00
57644;BME280;43474;46.510;6.686;2023-02-20T04:24:17;97568.63;;;2.17;100.00
57644;BME280;43474;46.510;6.686;2023-02-20T04:26:44;97576.19;;;2.20;100.00
57644;BME280;43474;46.510;6.686;2023-02-20T04:29:11;97585.72;;;2.29;100.00
57644;BME280;43474;46.510;6.686;2023-02-20T04:31:36;97581.81;;;2.07;100.00
57644;BME280;43474;46.510;6.686;2023-02-20T04:34:02;97585.75;;;2.11;100.00
57644;BME280;43474;46.510;6.686;2023-02-20T04:36:28;97578.09;;;2.10;100.00
57644;BME280;43474;46.510;6.686;2023-02-20T04:38:54;97551.44;;;1.80;100.00
57644;BME280;43474;46.510;6.686;2023-02-20T04:41:19;97573.44;;;2.03;100.00
57644;BME280;43474;46.510;6.686;2023-02-20T04:43:45;97573.59;;;2.02;100.00
57644;BME280;43474;46.510;6.686;2023-02-20T04:46:12;97585.59;;;2.13;100.00
57644;BME280;43474;46.510;6.686;2023-02-20T04:48:37;97583.34;;;2.18;100.00
57644;BME280;43474;46.510;6.686;2023-02-20T04:51:03;97589.63;;;2.33;100.00
57644;BME280;43474;46.510;6.686;2023-02-20T04:53:29;97590.34;;;2.43;100.00
57644;BME280;43474;46.510;6.686;2023-02-20T04:55:54;97587.69;;;2.35;100.00
57644;BME280;43474;46.510;6.686;2023-02-20T04:58:20;97584.84;;;2.20;100.00
57644;BME280;43474;46.510;6.686;2023-02-20T05:00:45;97590.38;;;2.17;100.00
57644;BME280;43474;46.510;6.686;2023-02-20T05:03:11;97593.97;;;2.16;100.00
57644;BME280;43474;46.510;6.686;2023-02-20T05:05:36;97603.34;;;2.27;100.00
57644;BME280;43474;46.510;6.686;2023-02-20T05:08:04;97601.25;;;2.30;100.00
57644;BME280;43474;46.510;6.686;2023-02-20T05:10:32;97604.31;;;2.26;100.00
57644;BME280;43474;46.510;6.686;2023-02-20T05:12:58;97597.19;;;2.36;100.00
57644;BME280;43474;46.510;6.686;2023-02-20T05:15:25;97593.69;;;2.27;100.00
57644;BME280;43474;46.510;6.686;2023-02-20T05:17:51;97603.84;;;2.30;100.00
57644;BME280;43474;46.510;6.686;2023-02-20T05:20:17;97592.63;;;2.12;100.00
57644;BME280;43474;46.510;6.686;2023-02-20T05:22:47;97591.44;;;2.06;100.00
57644;BME280;43474;46.510;6.686;2023-02-20T05:25:13;97604.06;;;2.11;100.00
57644;BME280;43474;46.510;6.686;2023-02-20T05:27:40;97613.63;;;2.02;100.00
57644;BME280;43474;46.510;6.686;2023-02-20T05:30:08;97613.63;;;2.02;100.00
57644;BME280;43474;46.510;6.686;2023-02-20T05:32:34;97616.06;;;2.22;100.00
57644;BME280;43474;46.510;6.686;2023-02-20T05:35:00;97610.44;;;2.43;100.00
57644;BME280;43474;46.510;6.686;2023-02-20T05:37:26;97602.25;;;2.38;100.00
57644;BME280;43474;46.510;6.686;2023-02-20T05:39:52;97581.25;;;2.21;100.00
57644;BME280;43474;46.510;6.686;2023-02-20T05:42:19;97598.47;;;2.32;100.00
57644;BME280;43474;46.510;6.686;2023-02-20T05:44:45;97604.25;;;2.44;100.00
57644;BME280;43474;46.510;6.686;2023-02-20T05:47:11;97605.84;;;2.71;100.00
57644;BME280;43474;46.510;6.686;2023-02-20T05:49:36;97612.63;;;2.98;100.00
57644;BME280;43474;46.510;6.686;2023-02-20T05:52:04;97612.50;;;2.99;100.00
57644;BME280;43474;46.510;6.686;2023-02-20T05:54:36;97619.06;;;3.03;100.00
57644;BME280;43474;46.510;6.686;2023-02-20T05:57:02;97605.25;;;2.93;100.00
57644;BME280;43474;46.510;6.686;2023-02-20T05:59:27;97606.25;;;2.92;100.00
57644;BME280;43474;46.510;6.686;2023-02-20T06:01:57;97615.41;;;2.96;100.00
57644;BME280;43474;46.510;6.686;2023-02-20T06:04:23;97609.31;;;2.79;100.00
57644;BME280;43474;46.510;6.686;2023-02-20T06:06:49;97598.75;;;2.63;100.00
57644;BME280;43474;46.510;6.686;2023-02-20T06:09:14;97604.84;;;2.72;100.00
57644;BME280;43474;46.510;6.686;2023-02-20T06:11:46;97623.97;;;2.64;100.00
57644;BME280;43474;46.510;6.686;2023-02-20T06:14:14;97613.66;;;2.63;100.00
57644;BME280;43474;46.510;6.686;2023-02-20T06:16:40;97594.63;;;2.52;100.00
57644;BME280;43474;46.510;6.686;2023-02-20T06:19:05;97591.78;;;2.38;100.00
57644;BME280;43474;46.510;6.686;2023-02-20T06:21:31;97607.22;;;2.49;100.00
57644;BME280;43474;46.510;6.686;2023-02-20T06:24:00;97600.97;;;2.42;100.00
57644;BME280;43474;46.510;6.686;2023-02-20T06:26:26;97601.13;;;2.82;100.00
57644;BME280;43474;46.510;6.686;2023-02-20T06:28:52;97589.34;;;2.78;100.00
57644;BME280;43474;46.510;6.686;2023-02-20T06:31:21;97593.75;;;2.78;100.00
57644;BME280;43474;46.510;6.686;2023-02-20T06:33:47;97583.78;;;2.81;100.00
57644;BME280;43474;46.510;6.686;2023-02-20T06:36:20;97592.00;;;2.87;100.00
57644;BME280;43474;46.510;6.686;2023-02-20T06:38:46;97590.09;;;3.05;100.00
57644;BME280;43474;46.510;6.686;2023-02-20T06:41:12;97578.13;;;3.02;100.00
57644;BME280;43474;46.510;6.686;2023-02-20T06:43:37;97587.81;;;3.10;100.00
57644;BME280;43474;46.510;6.686;2023-02-20T06:46:03;97580.63;;;3.20;100.00
57644;BME280;43474;46.510;6.686;2023-02-20T06:48:28;97586.69;;;3.29;100.00
57644;BME280;43474;46.510;6.686;2023-02-20T06:50:54;97583.91;;;3.47;100.00
57644;BME280;43474;46.510;6.686;2023-02-20T06:53:21;97562.47;;;3.51;100.00
57644;BME280;43474;46.510;6.686;2023-02-20T06:55:47;97584.44;;;3.58;100.00
57644;BME280;43474;46.510;6.686;2023-02-20T06:58:12;97566.56;;;3.78;100.00
57644;BME280;43474;46.510;6.686;2023-02-20T07:00:38;97577.03;;;3.86;100.00
57644;BME280;43474;46.510;6.686;2023-02-20T07:03:03;97565.91;;;3.84;100.00
57644;BME280;43474;46.510;6.686;2023-02-20T07:05:29;97555.38;;;4.01;100.00
57644;BME280;43474;46.510;6.686;2023-02-20T07:07:54;97565.88;;;4.01;100.00
57644;BME280;43474;46.510;6.686;2023-02-20T07:10:20;97558.63;;;4.11;100.00
57644;BME280;43474;46.510;6.686;2023-02-20T07:12:46;97565.84;;;4.17;100.00
57644;BME280;43474;46.510;6.686;2023-02-20T07:15:12;97584.19;;;4.25;100.00
57644;BME280;43474;46.510;6.686;2023-02-20T07:17:37;97572.69;;;4.26;100.00
57644;BME280;43474;46.510;6.686;2023-02-20T07:20:04;97583.81;;;4.45;100.00
57644;BME280;43474;46.510;6.686;2023-02-20T07:22:30;97584.13;;;4.50;100.00
57644;BME280;43474;46.510;6.686;2023-02-20T07:24:55;97589.69;;;4.55;100.00
57644;BME280;43474;46.510;6.686;2023-02-20T07:27:21;97588.50;;;4.57;100.00
57644;BME280;43474;46.510;6.686;2023-02-20T07:29:48;97577.38;;;4.55;100.00
57644;BME280;43474;46.510;6.686;2023-02-20T07:32:15;97563.31;;;4.48;100.00
57644;BME280;43474;46.510;6.686;2023-02-20T07:34:46;97584.75;;;4.60;100.00
57644;BME280;43474;46.510;6.686;2023-02-20T07:37:12;97578.97;;;4.64;100.00
57644;BME280;43474;46.510;6.686;2023-02-20T07:39:38;97574.69;;;4.72;100.00
57644;BME280;43474;46.510;6.686;2023-02-20T07:42:04;97580.84;;;4.87;100.00
57644;BME280;43474;46.510;6.686;2023-02-20T07:44:29;97571.94;;;4.96;100.00
57644;BME280;43474;46.510;6.686;2023-02-20T07:46:55;97581.41;;;5.05;100.00
57644;BME280;43474;46.510;6.686;2023-02-20T07:49:21;97576.63;;;5.09;100.00
57644;BME280;43474;46.510;6.686;2023-02-20T07:51:46;97579.19;;;5.17;100.00
57644;BME280;43474;46.510;6.686;2023-02-20T07:54:12;97576.63;;;5.32;100.00
57644;BME280;43474;46.510;6.686;2023-02-20T07:56:39;97571.47;;;5.84;100.00
57644;BME280;43474;46.510;6.686;2023-02-20T07:59:05;97569.03;;;6.35;100.00
57644;BME280;43474;46.510;6.686;2023-02-20T08:01:31;97564.16;;;6.62;100.00
57644;BME280;43474;46.510;6.686;2023-02-20T08:03:57;97567.53;;;7.28;100.00
57644;BME280;43474;46.510;6.686;2023-02-20T08:06:23;97580.34;;;8.23;100.00
57644;BME280;43474;46.510;6.686;2023-02-20T08:08:49;97588.84;;;8.88;100.00
57644;BME280;43474;46.510;6.686;2023-02-20T08:11:17;97579.66;;;9.39;100.00
57644;BME280;43474;46.510;6.686;2023-02-20T08:13:44;97571.59;;;10.06;99.17
57644;BME280;43474;46.510;6.686;2023-02-20T08:16:09;97535.72;;;10.37;94.39
57644;BME280;43474;46.510;6.686;2023-02-20T08:18:35;97542.44;;;10.40;93.99
57644;BME280;43474;46.510;6.686;2023-02-20T08:21:01;97551.22;;;10.40;95.85
57644;BME280;43474;46.510;6.686;2023-02-20T08:23:26;97556.41;;;10.73;94.79
57644;BME280;43474;46.510;6.686;2023-02-20T08:25:52;97550.66;;;10.90;94.36
57644;BME280;43474;46.510;6.686;2023-02-20T08:28:18;97550.66;;;11.28;90.79
57644;BME280;43474;46.510;6.686;2023-02-20T08:30:44;97545.16;;;11.29;88.52
57644;BME280;43474;46.510;6.686;2023-02-20T08:33:10;97551.50;;;11.53;91.12
57644;BME280;43474;46.510;6.686;2023-02-20T08:35:36;97541.72;;;11.85;90.13
57644;BME280;43474;46.510;6.686;2023-02-20T08:38:04;97552.41;;;12.04;93.11
57644;BME280;43474;46.510;6.686;2023-02-20T08:40:29;97554.19;;;12.10;89.62
57644;BME280;43474;46.510;6.686;2023-02-20T08:42:55;97546.59;;;12.13;86.59
57644;BME280;43474;46.510;6.686;2023-02-20T08:45:21;97540.72;;;12.30;86.06
57644;BME280;43474;46.510;6.686;2023-02-20T08:47:47;97549.59;;;12.60;84.83
57644;BME280;43474;46.510;6.686;2023-02-20T08:50:14;97541.53;;;12.67;85.23
57644;BME280;43474;46.510;6.686;2023-02-20T08:52:44;97542.50;;;12.73;87.94
57644;BME280;43474;46.510;6.686;2023-02-20T08:55:11;97542.34;;;12.86;85.97
57644;BME280;43474;46.510;6.686;2023-02-20T08:57:36;97530.19;;;12.60;89.64
57644;BME280;43474;46.510;6.686;2023-02-20T09:00:05;97543.78;;;12.70;86.31
57644;BME280;43474;46.510;6.686;2023-02-20T09:02:31;97542.59;;;12.84;87.11
57644;BME280;43474;46.510;6.686;2023-02-20T09:04:56;97550.91;;;13.06;83.64
57644;BME280;43474;46.510;6.686;2023-02-20T09:07:23;97545.56;;;13.06;84.67
57644;BME280;43474;46.510;6.686;2023-02-20T09:09:50;97547.34;;;13.12;82.48
57644;BME280;43474;46.510;6.686;2023-02-20T09:12:16;97537.34;;;13.56;82.21
57644;BME280;43474;46.510;6.686;2023-02-20T09:14:42;97539.94;;;13.33;79.54
57644;BME280;43474;46.510;6.686;2023-02-20T09:17:07;97549.59;;;13.45;79.90
57644;BME280;43474;46.510;6.686;2023-02-20T09:19:33;97531.25;;;13.67;81.52
57644;BME280;43474;46.510;6.686;2023-02-20T09:22:00;97536.09;;;13.70;77.86
57644;BME280;43474;46.510;6.686;2023-02-20T09:24:25;97534.28;;;13.83;75.52
57644;BME280;43474;46.510;6.686;2023-02-20T09:26:56;97528.16;;;14.06;75.62
57644;BME280;43474;46.510;6.686;2023-02-20T09:29:22;97527.53;;;13.80;72.77
57644;BME280;43474;46.510;6.686;2023-02-20T09:31:48;97520.59;;;13.91;72.26
57644;BME280;43474;46.510;6.686;2023-02-20T09:34:14;97535.31;;;13.82;72.33
57644;BME280;43474;46.510;6.686;2023-02-20T09:36:39;97549.44;;;13.82;72.30
57644;BME280;43474;46.510;6.686;2023-02-20T09:39:05;97535.91;;;13.84;72.67
57644;BME280;43474;46.510;6.686;2023-02-20T09:46:44;97544.81;;;13.89;72.42
57644;BME280;43474;46.510;6.686;2023-02-20T09:49:18;97544.75;;;14.08;68.88
57644;BME280;43474;46.510;6.686;2023-02-20T09:51:59;97540.19;;;13.73;69.99
57644;BME280;43474;46.510;6.686;2023-02-20T09:54:35;97542.66;;;14.10;72.75
57644;BME280;43474;46.510;6.686;2023-02-20T09:57:14;97534.97;;;14.02;72.20
57644;BME280;43474;46.510;6.686;2023-02-20T09:59:51;97536.03;;;13.89;75.38
57644;BME280;43474;46.510;6.686;2023-02-20T10:02:20;97545.09;;;14.23;75.70
57644;BME280;43474;46.510;6.686;2023-02-20T10:04:51;97538.84;;;14.17;71.33
57644;BME280;43474;46.510;6.686;2023-02-20T10:09:48;97523.16;;;14.21;72.72
57644;BME280;43474;46.510;6.686;2023-02-20T10:12:27;97536.03;;;14.24;73.93
57644;BME280;43474;46.510;6.686;2023-02-20T10:15:07;97542.88;;;14.08;75.08
57644;BME280;43474;46.510;6.686;2023-02-20T10:20:30;97531.31;;;14.50;75.60
57644;BME280;43474;46.510;6.686;2023-02-20T10:26:17;97517.22;;;14.66;73.97
57644;BME280;43474;46.510;6.686;2023-02-20T10:28:47;97520.91;;;14.88;74.86
57644;BME280;43474;46.510;6.686;2023-02-20T10:31:30;97504.59;;;14.61;72.36
57644;BME280;43474;46.510;6.686;2023-02-20T10:34:02;97496.94;;;14.65;72.80
57644;BME280;43474;46.510;6.686;2023-02-20T10:36:37;97512.50;;;14.09;74.22
57644;BME280;43474;46.510;6.686;2023-02-20T10:44:18;97500.44;;;14.30;75.24
57644;BME280;43474;46.510;6.686;2023-02-20T10:47:09;97493.97;;;14.50;74.54
57644;BME280;43474;46.510;6.686;2023-02-20T10:49:44;97495.56;;;14.51;74.96
57644;BME280;43474;46.510;6.686;2023-02-20T10:52:21;97496.63;;;14.50;73.55
57644;BME280;43474;46.510;6.686;2023-02-20T10:54:54;97475.63;;;14.53;72.09
57644;BME280;43474;46.510;6.686;2023-02-20T10:57:40;97481.81;;;14.18;73.80
57644;BME280;43474;46.510;6.686;2023-02-20T11:00:16;97463.84;;;14.14;74.01
57644;BME280;43474;46.510;6.686;2023-02-20T11:02:53;97472.28;;;14.11;73.76
57644;BME280;43474;46.510;6.686;2023-02-20T11:05:24;97470.44;;;14.23;75.47
57644;BME280;43474;46.510;6.686;2023-02-20T11:07:51;97451.44;;;13.84;75.84
57644;BME280;43474;46.510;6.686;2023-02-20T11:10:18;97461.69;;;14.63;74.48
57644;BME280;43474;46.510;6.686;2023-02-20T11:12:48;97455.97;;;14.71;72.59
57644;BME280;43474;46.510;6.686;2023-02-20T11:15:18;97470.00;;;14.66;72.54
57644;BME280;43474;46.510;6.686;2023-02-20T11:17:43;97464.72;;;14.55;73.98
57644;BME280;43474;46.510;6.686;2023-02-20T11:23:05;97448.13;;;14.41;70.78
57644;BME280;43474;46.510;6.686;2023-02-20T11:25:40;97457.19;;;14.52;73.02
57644;BME280;43474;46.510;6.686;2023-02-20T11:30:41;97452.88;;;14.91;70.84
57644;BME280;43474;46.510;6.686;2023-02-20T11:33:15;97447.84;;;14.78;66.25
57644;BME280;43474;46.510;6.686;2023-02-20T11:35:43;97433.44;;;14.79;65.42
57644;BME280;43474;46.510;6.686;2023-02-20T11:40:43;97440.53;;;15.02;66.03
57644;BME280;43474;46.510;6.686;2023-02-20T11:45:39;97420.56;;;15.21;65.37
57644;BME280;43474;46.510;6.686;2023-02-20T11:50:43;97413.72;;;15.42;63.98
57644;BME280;43474;46.510;6.686;2023-02-20T11:53:26;97397.06;;;15.51;63.63
57644;BME280;43474;46.510;6.686;2023-02-20T11:58:33;97402.88;;;15.82;62.82
57644;BME280;43474;46.510;6.686;2023-02-20T12:00:59;97396.22;;;15.85;64.15
57644;BME280;43474;46.510;6.686;2023-02-20T12:03:29;97393.09;;;16.10;63.31
57644;BME280;43474;46.510;6.686;2023-02-20T12:05:56;97374.59;;;15.86;62.12
57644;BME280;43474;46.510;6.686;2023-02-20T12:08:42;97386.75;;;15.60;63.40
57644;BME280;43474;46.510;6.686;2023-02-20T12:11:17;97377.69;;;15.44;63.13
57644;BME280;43474;46.510;6.686;2023-02-20T12:13:45;97381.91;;;15.40;63.72
57644;BME280;43474;46.510;6.686;2023-02-20T12:25:01;97376.50;;;15.18;62.31
57644;BME280;43474;46.510;6.686;2023-02-20T12:41:35;97342.47;;;14.80;64.20
57644;BME280;43474;46.510;6.686;2023-02-20T12:44:26;97351.31;;;14.52;67.22
57644;BME280;43474;46.510;6.686;2023-02-20T12:52:16;97332.72;;;14.29;70.06
57644;BME280;43474;46.510;6.686;2023-02-20T12:54:54;97335.50;;;14.22;70.13
57644;BME280;43474;46.510;6.686;2023-02-20T12:57:34;97331.66;;;13.89;71.21
57644;BME280;43474;46.510;6.686;2023-02-20T13:00:32;97302.84;;;13.75;71.43
57644;BME280;43474;46.510;6.686;2023-02-20T13:05:34;97313.94;;;14.23;71.17
57644;BME280;43474;46.510;6.686;2023-02-20T13:08:59;97308.75;;;14.45;70.08
57644;BME280;43474;46.510;6.686;2023-02-20T13:10:57;97312.19;;;14.29;68.30
57644;BME280;43474;46.510;6.686;2023-02-20T13:13:26;97310.81;;;14.55;68.63
57644;BME280;43474;46.510;6.686;2023-02-20T13:16:06;97312.72;;;14.43;67.10
57644;BME280;43474;46.510;6.686;2023-02-20T13:18:46;97309.19;;;14.26;67.07
57644;BME280;43474;46.510;6.686;2023-02-20T13:21:18;97289.50;;;14.15;68.10
57644;BME280;43474;46.510;6.686;2023-02-20T13:23:45;97287.84;;;14.26;68.03
57644;BME280;43474;46.510;6.686;2023-02-20T13:29:27;97291.06;;;13.99;70.55
57644;BME280;43474;46.510;6.686;2023-02-20T13:31:56;97278.78;;;14.27;70.18
57644;BME280;43474;46.510;6.686;2023-02-20T13:34:28;97283.00;;;14.51;68.45
57644;BME280;43474;46.510;6.686;2023-02-20T13:36:53;97279.31;;;14.40;68.47
57644;BME280;43474;46.510;6.686;2023-02-20T13:39:37;97277.09;;;14.49;67.93
57644;BME280;43474;46.510;6.686;2023-02-20T13:42:24;97274.69;;;14.64;69.34
57644;BME280;43474;46.510;6.686;2023-02-20T13:44:50;97256.91;;;14.53;66.73
57644;BME280;43474;46.510;6.686;2023-02-20T13:52:43;97262.25;;;14.53;67.16
57644;BME280;43474;46.510;6.686;2023-02-20T13:57:47;97218.75;;;14.53;70.01
57644;BME280;43474;46.510;6.686;2023-02-20T14:00:23;97236.41;;;14.87;67.42
57644;BME280;43474;46.510;6.686;2023-02-20T14:02:50;97231.19;;;14.81;67.58
57644;BME280;43474;46.510;6.686;2023-02-20T14:05:19;97223.91;;;14.76;68.29
57644;BME280;43474;46.510;6.686;2023-02-20T14:07:45;97230.72;;;14.84;68.72
57644;BME280;43474;46.510;6.686;2023-02-20T14:13:12;97223.84;;;14.88;69.85
57644;BME280;43474;46.510;6.686;2023-02-20T14:15:56;97228.47;;;14.59;71.04
57644;BME280;43474;46.510;6.686;2023-02-20T14:18:32;97236.72;;;14.74;72.74
57644;BME280;43474;46.510;6.686;2023-02-20T14:21:20;97231.72;;;14.32;74.13
57644;BME280;43474;46.510;6.686;2023-02-20T14:23:49;97230.03;;;13.98;72.17
57644;BME280;43474;46.510;6.686;2023-02-20T14:26:30;97239.88;;;13.57;75.02
57644;BME280;43474;46.510;6.686;2023-02-20T14:28:58;97222.09;;;13.34;75.91
57644;BME280;43474;46.510;6.686;2023-02-20T14:31:31;97213.31;;;13.33;74.65
57644;BME280;43474;46.510;6.686;2023-02-20T14:34:00;97219.78;;;13.26;75.83
57644;BME280;43474;46.510;6.686;2023-02-20T14:39:36;97206.56;;;13.31;75.57
57644;BME280;43474;46.510;6.686;2023-02-20T14:42:04;97195.78;;;13.37;72.23
57644;BME280;43474;46.510;6.686;2023-02-20T14:44:33;97176.78;;;13.45;73.52
57644;BME280;43474;46.510;6.686;2023-02-20T14:47:11;97181.31;;;13.45;71.09
57644;BME280;43474;46.510;6.686;2023-02-20T14:49:38;97175.53;;;13.36;72.24
57644;BME280;43474;46.510;6.686;2023-02-20T14:52:19;97170.91;;;13.43;73.24
57644;BME280;43474;46.510;6.686;2023-02-20T14:54:55;97180.06;;;13.48;72.96
57644;BME280;43474;46.510;6.686;2023-02-20T14:57:21;97179.13;;;13.42;72.41